createdAt,value
2018-07-01T00:00:56.973Z,0.00
2018-07-01T00:03:28.791Z,0.00
2018-07-01T00:04:28.965Z,0.00
2018-07-01T00:05:29.150Z,0.00
2018-07-01T00:06:29.345Z,0.00
2018-07-01T00:07:29.553Z,0.00
2018-07-01T00:08:29.752Z,0.00
2018-07-01T00:09:29.957Z,0.00
2018-07-01T00:10:30.165Z,0.00
2018-07-01T00:11:30.378Z,0.00
2018-07-01T00:12:30.575Z,0.00
2018-07-01T00:13:30.775Z,0.00
2018-07-01T00:14:30.992Z,0.00
2018-07-01T00:15:31.195Z,0.00
2018-07-01T00:16:31.386Z,0.00
2018-07-01T00:17:31.576Z,0.00
2018-07-01T00:18:31.764Z,0.00
2018-07-01T00:19:31.970Z,0.00
2018-07-01T00:20:32.154Z,0.00
2018-07-01T00:21:32.337Z,0.00
2018-07-01T00:22:32.522Z,0.00
2018-07-01T00:23:32.710Z,0.00
2018-07-01T00:24:32.906Z,0.00
2018-07-01T00:25:33.138Z,0.00
2018-07-01T00:26:33.331Z,0.00
2018-07-01T00:27:33.545Z,0.00
2018-07-01T00:28:33.736Z,0.00
2018-07-01T00:29:33.919Z,0.00
2018-07-01T00:30:34.125Z,0.00
2018-07-01T00:31:34.337Z,0.00
2018-07-01T00:32:34.587Z,0.00
2018-07-01T00:35:06.271Z,0.00
2018-07-01T00:36:06.449Z,0.00
2018-07-01T00:37:06.653Z,0.00
2018-07-01T00:38:06.869Z,0.00
2018-07-01T00:39:07.053Z,0.00
2018-07-01T00:40:07.244Z,0.00
2018-07-01T00:42:39.067Z,0.00
2018-07-01T00:43:39.238Z,0.00
2018-07-01T00:44:39.420Z,0.00
2018-07-01T00:45:39.619Z,0.00
2018-07-01T00:46:39.808Z,0.00
2018-07-01T00:47:40.006Z,0.00
2018-07-01T00:48:40.223Z,0.00
2018-07-01T00:49:40.428Z,0.00
2018-07-01T00:50:40.616Z,0.00
2018-07-01T00:51:40.811Z,0.00
2018-07-01T00:52:41.090Z,0.00
2018-07-01T00:53:41.173Z,0.00
2018-07-01T00:54:41.381Z,0.00
2018-07-01T00:55:41.575Z,0.00
2018-07-01T00:56:41.781Z,0.00
2018-07-01T00:57:41.973Z,0.00
2018-07-01T00:58:42.156Z,0.00
2018-07-01T01:01:14.356Z,0.00
2018-07-01T01:02:14.589Z,0.00
2018-07-01T01:04:46.547Z,0.00
2018-07-01T01:05:46.713Z,0.00
2018-07-01T01:06:46.913Z,0.00
2018-07-01T01:07:47.180Z,0.00
2018-07-01T01:08:47.249Z,0.00
2018-07-01T01:09:47.457Z,0.00
2018-07-01T01:10:47.643Z,0.00
2018-07-01T01:11:47.845Z,0.00
2018-07-01T01:12:48.043Z,0.00
2018-07-01T01:13:48.230Z,0.00
2018-07-01T01:14:48.438Z,0.00
2018-07-01T01:15:48.625Z,0.00
2018-07-01T01:16:48.803Z,0.00
2018-07-01T01:17:49.003Z,0.00
2018-07-01T01:18:49.199Z,0.00
2018-07-01T01:19:49.381Z,0.00
2018-07-01T01:22:21.483Z,0.00
2018-07-01T01:23:21.654Z,0.00
2018-07-01T01:24:21.848Z,0.00
2018-07-01T01:25:22.034Z,0.00
2018-07-01T01:26:22.242Z,0.00
2018-07-01T01:27:22.424Z,0.00
2018-07-01T01:28:22.618Z,0.00
2018-07-01T01:29:22.819Z,0.00
2018-07-01T01:30:23.024Z,0.00
2018-07-01T01:31:23.226Z,0.00
2018-07-01T01:32:23.434Z,0.00
2018-07-01T01:33:23.641Z,0.00
2018-07-01T01:34:23.833Z,0.00
2018-07-01T01:35:24.013Z,0.00
2018-07-01T01:36:24.198Z,0.00
2018-07-01T01:37:24.393Z,0.00
2018-07-01T01:38:24.594Z,0.00
2018-07-01T01:39:24.785Z,0.00
2018-07-01T01:40:25.004Z,0.00
2018-07-01T01:41:25.206Z,0.00
2018-07-01T01:42:25.405Z,0.00
2018-07-01T01:43:25.590Z,0.00
2018-07-01T01:44:25.772Z,0.00
2018-07-01T01:45:25.956Z,0.00
2018-07-01T01:46:26.146Z,0.00
2018-07-01T01:47:26.325Z,0.00
2018-07-01T01:48:26.508Z,0.00
2018-07-01T01:49:26.702Z,0.00
2018-07-01T01:50:26.908Z,0.00
2018-07-01T01:51:27.090Z,0.00
2018-07-01T01:52:27.271Z,0.00
2018-07-01T01:53:27.463Z,0.00
2018-07-01T01:54:27.663Z,0.00
2018-07-01T01:55:27.876Z,0.00
2018-07-01T01:56:28.055Z,0.00
2018-07-01T01:57:28.263Z,0.00
2018-07-01T01:58:28.469Z,0.00
2018-07-01T01:59:28.671Z,0.00
2018-07-01T02:00:28.866Z,0.00
2018-07-01T02:01:29.074Z,0.00
2018-07-01T02:02:29.258Z,0.00
2018-07-01T02:03:29.451Z,0.00
2018-07-01T02:04:29.647Z,0.00
2018-07-01T02:05:29.833Z,0.00
2018-07-01T02:08:01.932Z,0.00
2018-07-01T02:09:02.115Z,0.00
2018-07-01T02:10:02.327Z,0.00
2018-07-01T02:11:02.516Z,0.00
2018-07-01T02:12:02.715Z,0.00
2018-07-01T02:13:02.934Z,0.00
2018-07-01T02:14:03.143Z,0.00
2018-07-01T02:15:03.355Z,0.00
2018-07-01T02:16:03.557Z,0.00
2018-07-01T02:17:03.754Z,0.00
2018-07-01T02:18:03.951Z,0.00
2018-07-01T02:19:04.139Z,0.00
2018-07-01T02:20:04.345Z,0.00
2018-07-01T02:21:04.536Z,0.00
2018-07-01T02:22:04.723Z,0.00
2018-07-01T02:23:04.914Z,4.00
2018-07-01T02:25:37.038Z,0.00
2018-07-01T02:26:37.216Z,0.00
2018-07-01T02:27:37.414Z,4.00
2018-07-01T02:28:37.624Z,4.00
2018-07-01T02:29:37.818Z,0.00
2018-07-01T02:30:38.003Z,4.00
2018-07-01T02:33:10.121Z,4.00
2018-07-01T02:34:10.300Z,4.00
2018-07-01T02:35:10.567Z,8.00
2018-07-01T02:36:10.631Z,8.00
2018-07-01T02:37:10.826Z,8.00
2018-07-01T02:38:11.030Z,8.00
2018-07-01T02:39:11.239Z,12.00
2018-07-01T02:40:11.445Z,12.00
2018-07-01T02:41:11.646Z,12.00
2018-07-01T02:42:11.845Z,16.00
2018-07-01T02:43:12.039Z,16.00
2018-07-01T02:44:12.259Z,20.00
2018-07-01T02:45:12.463Z,24.00
2018-07-01T02:47:45.359Z,32.00
2018-07-01T02:48:45.529Z,36.00
2018-07-01T02:49:45.714Z,36.00
2018-07-01T02:50:45.928Z,44.00
2018-07-01T02:51:46.125Z,48.00
2018-07-01T02:52:46.325Z,56.00
2018-07-01T02:53:46.583Z,64.00
2018-07-01T02:54:46.726Z,68.00
2018-07-01T02:55:46.926Z,80.00
2018-07-01T02:56:47.135Z,84.00
2018-07-01T02:57:47.321Z,96.00
2018-07-01T03:00:20.149Z,124.00
2018-07-01T03:01:20.326Z,140.00
2018-07-01T03:02:20.510Z,152.00
2018-07-01T03:03:20.702Z,168.00
2018-07-01T03:04:20.895Z,184.00
2018-07-01T03:05:21.102Z,204.00
2018-07-01T03:06:21.298Z,224.00
2018-07-01T03:07:21.494Z,244.00
2018-07-01T03:08:21.682Z,264.00
2018-07-01T03:09:21.884Z,292.00
2018-07-01T03:10:22.091Z,316.00
2018-07-01T03:11:22.274Z,340.00
2018-07-01T03:12:22.480Z,368.00
2018-07-01T03:13:22.676Z,400.00
2018-07-01T03:14:22.873Z,428.00
2018-07-01T03:15:23.076Z,460.00
2018-07-01T03:16:23.254Z,496.00
2018-07-01T03:17:23.454Z,528.00
2018-07-01T03:18:23.658Z,568.00
2018-07-01T03:19:23.861Z,604.00
2018-07-01T03:20:24.058Z,640.00
2018-07-01T03:21:24.268Z,680.00
2018-07-01T03:22:24.456Z,724.00
2018-07-01T03:23:24.639Z,764.00
2018-07-01T03:24:24.826Z,808.00
2018-07-01T03:25:25.011Z,852.00
2018-07-01T03:26:25.210Z,896.00
2018-07-01T03:27:25.396Z,940.00
2018-07-01T03:28:25.595Z,984.00
2018-07-01T03:29:25.781Z,1028.00
2018-07-01T03:30:25.978Z,1076.00
2018-07-01T03:31:26.165Z,1124.00
2018-07-01T03:32:26.358Z,1168.00
2018-07-01T03:33:26.560Z,1216.00
2018-07-01T03:34:26.764Z,1264.00
2018-07-01T03:35:26.948Z,1312.00
2018-07-01T03:36:27.154Z,1360.00
2018-07-01T03:37:27.353Z,1404.00
2018-07-01T03:38:27.546Z,1456.00
2018-07-01T03:39:27.726Z,1504.00
2018-07-01T03:40:27.931Z,1548.00
2018-07-01T03:41:28.124Z,1592.00
2018-07-01T03:42:28.331Z,1644.00
2018-07-01T03:43:28.535Z,1688.00
2018-07-01T03:44:28.733Z,1736.00
2018-07-01T03:45:28.940Z,1780.00
2018-07-01T03:46:29.155Z,1832.00
2018-07-01T03:47:29.341Z,1876.00
2018-07-01T03:48:30.123Z,1924.00
2018-07-01T03:49:29.709Z,1972.00
2018-07-01T03:50:29.920Z,2012.00
2018-07-01T03:51:30.103Z,2060.00
2018-07-01T03:52:30.308Z,2104.00
2018-07-01T03:53:30.579Z,2148.00
2018-07-01T03:54:30.667Z,2192.00
2018-07-01T03:55:30.874Z,2248.00
2018-07-01T03:56:31.079Z,2344.00
2018-07-01T03:57:31.285Z,2456.00
2018-07-01T03:58:31.487Z,2520.00
2018-07-01T03:59:31.678Z,2456.00
2018-07-01T04:00:31.871Z,2468.00
2018-07-01T04:01:32.056Z,2524.00
2018-07-01T04:02:32.265Z,2636.00
2018-07-01T04:03:32.474Z,3376.00
2018-07-01T04:04:32.812Z,3884.00
2018-07-01T04:05:32.881Z,3568.00
2018-07-01T04:06:33.086Z,3724.00
2018-07-01T04:07:33.276Z,4072.00
2018-07-01T04:08:33.458Z,4856.00
2018-07-01T04:09:33.671Z,4708.00
2018-07-01T04:10:33.865Z,5120.00
2018-07-01T04:11:34.067Z,4584.00
2018-07-01T04:12:34.269Z,4980.00
2018-07-01T04:13:34.436Z,6132.00
2018-07-01T04:14:34.621Z,5296.00
2018-07-01T04:15:34.828Z,5860.00
2018-07-01T04:16:35.037Z,9636.00
2018-07-01T04:17:35.245Z,12216.00
2018-07-01T04:18:35.452Z,13152.00
2018-07-01T04:19:35.646Z,13568.00
2018-07-01T04:20:35.839Z,13920.00
2018-07-01T04:21:36.053Z,14336.00
2018-07-01T04:22:36.239Z,15104.00
2018-07-01T04:23:36.431Z,16000.00
2018-07-01T04:24:36.615Z,16800.00
2018-07-01T04:25:36.815Z,17248.00
2018-07-01T04:26:37.014Z,17344.00
2018-07-01T04:27:37.204Z,17568.00
2018-07-01T04:28:37.415Z,18112.00
2018-07-01T04:29:37.624Z,18912.00
2018-07-01T04:30:37.832Z,19392.00
2018-07-01T04:31:38.020Z,19776.00
2018-07-01T04:32:38.229Z,19776.00
2018-07-01T04:33:38.406Z,19648.00
2018-07-01T04:34:38.594Z,19488.00
2018-07-01T04:35:38.791Z,19424.00
2018-07-01T04:36:38.997Z,19616.00
2018-07-01T04:37:39.210Z,19968.00
2018-07-01T04:40:11.332Z,21824.00
2018-07-01T04:41:11.504Z,22752.00
2018-07-01T04:42:11.726Z,23552.00
2018-07-01T04:43:11.927Z,24320.00
2018-07-01T04:44:12.135Z,24992.00
2018-07-01T04:45:12.346Z,25312.00
2018-07-01T04:46:12.558Z,25472.00
2018-07-01T04:47:12.769Z,25376.00
2018-07-01T04:48:12.975Z,24992.00
2018-07-01T04:49:13.228Z,24608.00
2018-07-01T04:50:13.365Z,24544.00
2018-07-01T04:51:13.555Z,24640.00
2018-07-01T04:52:13.769Z,25056.00
2018-07-01T04:53:13.960Z,25792.00
2018-07-01T04:54:14.153Z,26560.00
2018-07-01T04:55:14.437Z,27488.00
2018-07-01T04:56:14.574Z,27616.00
2018-07-01T04:57:14.788Z,28000.00
2018-07-01T04:58:14.984Z,28320.00
2018-07-01T04:59:15.175Z,29184.00
2018-07-01T05:00:15.360Z,30272.00
2018-07-01T05:01:15.578Z,31744.00
2018-07-01T05:02:15.818Z,32672.00
2018-07-01T05:03:15.973Z,33152.00
2018-07-01T05:04:16.176Z,33280.00
2018-07-01T05:05:16.372Z,33120.00
2018-07-01T05:06:16.565Z,32960.00
2018-07-01T05:07:16.755Z,32864.00
2018-07-01T05:08:17.070Z,33056.00
2018-07-01T05:09:17.154Z,33408.00
2018-07-01T05:10:17.365Z,33920.00
2018-07-01T05:11:17.565Z,34752.00
2018-07-01T05:12:17.781Z,35072.00
2018-07-01T05:13:17.995Z,35104.00
2018-07-01T05:14:18.192Z,34592.00
2018-07-01T05:15:18.380Z,34368.00
2018-07-01T05:16:18.584Z,34464.00
2018-07-01T05:17:18.775Z,35008.00
2018-07-01T05:18:18.992Z,35776.00
2018-07-01T05:19:19.209Z,36480.00
2018-07-01T05:20:19.421Z,36160.00
2018-07-01T05:21:19.609Z,35808.00
2018-07-01T05:22:19.805Z,36192.00
2018-07-01T05:23:20.013Z,37056.00
2018-07-01T05:24:20.201Z,38688.00
2018-07-01T05:25:20.391Z,40512.00
2018-07-01T05:26:20.602Z,41760.00
2018-07-01T05:27:20.837Z,42144.00
2018-07-01T05:28:21.027Z,41696.00
2018-07-01T05:29:21.232Z,40864.00
2018-07-01T05:30:21.434Z,40192.00
2018-07-01T05:31:21.640Z,39936.00
2018-07-01T05:32:21.843Z,39968.00
2018-07-01T05:33:22.062Z,40320.00
2018-07-01T05:34:22.271Z,40768.00
2018-07-01T05:35:22.485Z,41504.00
2018-07-01T05:36:22.676Z,42688.00
2018-07-01T05:37:22.897Z,44352.00
2018-07-01T05:38:23.102Z,46048.00
2018-07-01T05:39:23.312Z,47584.00
2018-07-01T05:40:23.521Z,48544.00
2018-07-01T05:42:55.355Z,50240.00
2018-07-01T05:43:55.534Z,50688.00
2018-07-01T05:44:55.753Z,51104.00
2018-07-01T05:45:55.944Z,51168.00
2018-07-01T05:46:56.141Z,50944.00
2018-07-01T05:47:56.350Z,50720.00
2018-07-01T05:48:56.566Z,50848.00
2018-07-01T05:49:56.778Z,52032.00
2018-07-01T05:50:56.971Z,54208.00
2018-07-01T05:51:57.162Z,57408.00
2018-07-01T05:52:57.360Z,60000.00
2018-07-01T05:53:57.563Z,60672.00
2018-07-01T05:54:57.764Z,59264.00
2018-07-01T05:55:57.992Z,57216.00
2018-07-01T05:56:58.188Z,55648.00
2018-07-01T05:57:58.381Z,54752.00
2018-07-01T05:58:58.590Z,56160.00
2018-07-01T05:59:58.781Z,58400.00
2018-07-01T06:00:58.997Z,60512.00
2018-07-01T06:01:59.205Z,61056.00
2018-07-01T06:02:59.402Z,59008.00
2018-07-01T06:03:59.614Z,55616.00
2018-07-01T06:04:59.824Z,52000.00
2018-07-01T06:06:00.042Z,50688.00
2018-07-01T06:07:00.262Z,51872.00
2018-07-01T06:08:00.481Z,55200.00
2018-07-01T06:09:00.672Z,58240.00
2018-07-01T06:10:00.889Z,60288.00
2018-07-01T06:11:01.085Z,60128.00
2018-07-01T06:12:01.299Z,59168.00
2018-07-01T06:13:01.491Z,58496.00
2018-07-01T06:14:01.763Z,58432.00
2018-07-01T06:15:01.929Z,60256.00
2018-07-01T06:16:02.125Z,62656.00
2018-07-01T06:17:02.344Z,64896.00
2018-07-01T06:18:02.575Z,65632.00
2018-07-01T06:19:02.795Z,65440.00
2018-07-01T06:20:03.020Z,64480.00
2018-07-01T06:21:03.221Z,63328.00
2018-07-01T06:22:03.412Z,62784.00
2018-07-01T06:23:03.608Z,63136.00
2018-07-01T06:24:03.814Z,64032.00
2018-07-01T06:25:04.023Z,65216.00
2018-07-01T06:26:04.229Z,65632.00
2018-07-01T06:27:04.424Z,65696.00
2018-07-01T06:28:04.635Z,64992.00
2018-07-01T06:30:36.469Z,63808.00
2018-07-01T06:31:36.649Z,63968.00
2018-07-01T06:32:36.848Z,64160.00
2018-07-01T06:33:37.061Z,64480.00
2018-07-01T06:34:37.265Z,64224.00
2018-07-01T06:35:37.456Z,63968.00
2018-07-01T06:36:37.674Z,63904.00
2018-07-01T06:37:37.874Z,63936.00
2018-07-01T06:38:38.068Z,64064.00
2018-07-01T06:39:38.282Z,64032.00
2018-07-01T06:40:38.485Z,63904.00
2018-07-01T06:41:38.699Z,64064.00
2018-07-01T06:42:38.914Z,64064.00
2018-07-01T06:43:39.122Z,64736.00
2018-07-01T06:44:39.339Z,65056.00
2018-07-01T06:45:39.549Z,65536.00
2018-07-01T06:46:39.745Z,65728.00
2018-07-01T06:47:39.949Z,66080.00
2018-07-01T06:48:40.156Z,66144.00
2018-07-01T06:49:40.353Z,65952.00
2018-07-01T06:50:40.545Z,66080.00
2018-07-01T06:53:12.796Z,67904.00
2018-07-01T06:54:12.844Z,68224.00
2018-07-01T06:55:13.063Z,68256.00
2018-07-01T06:56:13.278Z,67232.00
2018-07-01T06:57:13.473Z,66208.00
2018-07-01T06:58:13.683Z,65344.00
2018-07-01T06:59:13.880Z,64544.00
2018-07-01T07:00:14.093Z,64640.00
2018-07-01T07:01:14.307Z,64544.00
2018-07-01T07:02:14.525Z,65216.00
2018-07-01T07:03:14.721Z,64864.00
2018-07-01T07:04:14.926Z,64448.00
2018-07-01T07:05:15.138Z,64000.00
2018-07-01T07:06:15.364Z,63808.00
2018-07-01T07:07:15.553Z,63616.00
2018-07-01T07:08:15.745Z,63584.00
2018-07-01T07:09:15.955Z,65056.00
2018-07-01T07:10:16.172Z,66080.00
2018-07-01T07:11:16.380Z,66464.00
2018-07-01T07:12:16.583Z,67552.00
2018-07-01T07:13:16.785Z,67616.00
2018-07-01T07:14:16.974Z,68288.00
2018-07-01T07:15:17.200Z,67808.00
2018-07-01T07:16:17.423Z,68768.00
2018-07-01T07:17:17.585Z,68448.00
2018-07-01T07:18:17.813Z,69344.00
2018-07-01T07:19:18.039Z,69408.00
2018-07-01T07:20:18.252Z,68768.00
2018-07-01T07:21:18.472Z,68352.00
2018-07-01T07:22:18.665Z,69088.00
2018-07-01T07:23:18.872Z,68192.00
2018-07-01T07:24:19.079Z,68672.00
2018-07-01T07:25:19.273Z,69024.00
2018-07-01T07:26:19.482Z,68192.00
2018-07-01T07:27:19.680Z,67744.00
2018-07-01T07:28:19.897Z,67232.00
2018-07-01T07:29:20.091Z,68864.00
2018-07-01T07:30:20.294Z,69728.00
2018-07-01T07:31:20.494Z,71040.00
2018-07-01T07:32:20.691Z,71904.00
2018-07-01T07:33:20.891Z,72064.00
2018-07-01T07:34:21.108Z,71904.00
2018-07-01T07:35:21.314Z,71392.00
2018-07-01T07:36:21.537Z,71904.00
2018-07-01T07:37:21.735Z,73088.00
2018-07-01T07:38:21.956Z,74592.00
2018-07-01T07:39:22.161Z,75456.00
2018-07-01T07:40:22.354Z,76160.00
2018-07-01T07:41:22.648Z,76032.00
2018-07-01T07:42:22.744Z,75136.00
2018-07-01T07:43:22.972Z,75008.00
2018-07-01T07:44:23.198Z,74528.00
2018-07-01T07:45:23.405Z,74432.00
2018-07-01T07:46:23.609Z,74208.00
2018-07-01T07:47:23.832Z,74048.00
2018-07-01T07:48:24.043Z,73376.00
2018-07-01T07:49:24.266Z,72224.00
2018-07-01T07:50:24.471Z,72128.00
2018-07-01T07:51:24.681Z,71840.00
2018-07-01T07:52:24.894Z,71744.00
2018-07-01T07:53:25.124Z,71200.00
2018-07-01T07:54:25.354Z,71392.00
2018-07-01T07:55:25.539Z,72128.00
2018-07-01T07:56:25.745Z,72480.00
2018-07-01T07:57:25.963Z,72256.00
2018-07-01T07:58:26.174Z,72640.00
2018-07-01T07:59:26.374Z,72768.00
2018-07-01T08:00:26.585Z,73248.00
2018-07-01T08:01:26.797Z,74208.00
2018-07-01T08:02:26.996Z,75424.00
2018-07-01T08:03:27.205Z,75392.00
2018-07-01T08:04:27.420Z,74880.00
2018-07-01T08:05:27.620Z,75296.00
2018-07-01T08:06:27.832Z,74752.00
2018-07-01T08:07:28.113Z,74464.00
2018-07-01T08:08:28.245Z,74528.00
2018-07-01T08:09:28.465Z,74592.00
2018-07-01T08:10:28.683Z,74880.00
2018-07-01T08:11:28.962Z,74528.00
2018-07-01T08:12:29.034Z,75072.00
2018-07-01T08:13:29.226Z,74688.00
2018-07-01T08:14:29.451Z,74656.00
2018-07-01T08:15:29.654Z,75232.00
2018-07-01T08:16:29.877Z,76352.00
2018-07-01T08:17:30.094Z,77152.00
2018-07-01T08:18:30.313Z,78112.00
2018-07-01T08:19:30.535Z,78720.00
2018-07-01T08:20:30.744Z,78624.00
2018-07-01T08:21:30.952Z,79008.00
2018-07-01T08:22:31.217Z,79968.00
2018-07-01T08:23:31.308Z,79744.00
2018-07-01T08:24:31.529Z,79520.00
2018-07-01T08:25:31.749Z,79264.00
2018-07-01T08:26:31.972Z,78720.00
2018-07-01T08:27:32.171Z,78816.00
2018-07-01T08:28:32.365Z,78560.00
2018-07-01T08:29:32.594Z,77440.00
2018-07-01T08:30:32.815Z,77088.00
2018-07-01T08:31:33.019Z,76416.00
2018-07-01T08:34:04.867Z,75552.00
2018-07-01T08:35:05.130Z,75680.00
2018-07-01T08:36:05.228Z,75776.00
2018-07-01T08:37:05.431Z,74880.00
2018-07-01T08:38:06.339Z,76192.00
2018-07-01T08:39:05.848Z,76128.00
2018-07-01T08:40:06.055Z,75520.00
2018-07-01T08:41:06.264Z,75040.00
2018-07-01T08:42:06.471Z,74656.00
2018-07-01T08:43:06.698Z,73728.00
2018-07-01T08:44:06.892Z,73312.00
2018-07-01T08:45:07.111Z,73344.00
2018-07-01T08:46:07.332Z,74528.00
2018-07-01T08:47:07.541Z,76128.00
2018-07-01T08:48:07.763Z,76128.00
2018-07-01T08:49:07.965Z,75488.00
2018-07-01T08:50:08.169Z,74368.00
2018-07-01T08:51:08.384Z,72768.00
2018-07-01T08:52:08.594Z,71680.00
2018-07-01T08:53:08.805Z,71104.00
2018-07-01T08:54:09.030Z,70272.00
2018-07-01T08:55:09.199Z,71584.00
2018-07-01T08:56:09.416Z,72160.00
2018-07-01T08:57:09.623Z,71072.00
2018-07-01T08:58:09.822Z,70816.00
2018-07-01T08:59:10.842Z,70208.00
2018-07-01T09:00:10.223Z,69760.00
2018-07-01T09:01:10.445Z,70528.00
2018-07-01T09:03:42.584Z,75328.00
2018-07-01T09:04:42.770Z,77536.00
2018-07-01T09:05:42.999Z,79232.00
2018-07-01T09:06:43.199Z,80800.00
2018-07-01T09:07:43.403Z,80160.00
2018-07-01T09:08:43.706Z,78912.00
2018-07-01T09:09:43.835Z,77120.00
2018-07-01T09:10:44.044Z,75552.00
2018-07-01T09:11:44.267Z,74880.00
2018-07-01T09:12:44.482Z,74400.00
2018-07-01T09:13:44.683Z,74528.00
2018-07-01T09:14:44.885Z,74304.00
2018-07-01T09:15:45.093Z,73984.00
2018-07-01T09:16:45.288Z,74368.00
2018-07-01T09:17:45.483Z,73856.00
2018-07-01T09:18:45.690Z,74016.00
2018-07-01T09:19:45.901Z,74752.00
2018-07-01T09:20:46.106Z,75040.00
2018-07-01T09:21:46.331Z,74496.00
2018-07-01T09:22:46.546Z,73920.00
2018-07-01T09:23:46.764Z,71968.00
2018-07-01T09:24:46.958Z,69824.00
2018-07-01T09:25:47.187Z,67008.00
2018-07-01T09:26:47.390Z,66496.00
2018-07-01T09:27:47.596Z,66848.00
2018-07-01T09:28:47.841Z,67040.00
2018-07-01T09:29:48.016Z,69696.00
2018-07-01T09:30:48.216Z,71104.00
2018-07-01T09:31:48.417Z,73536.00
2018-07-01T09:32:48.640Z,73760.00
2018-07-01T09:33:48.876Z,73760.00
2018-07-01T09:34:49.082Z,73120.00
2018-07-01T09:35:49.287Z,72064.00
2018-07-01T09:36:49.494Z,70976.00
2018-07-01T09:37:49.704Z,70944.00
2018-07-01T09:38:49.898Z,70496.00
2018-07-01T09:39:50.126Z,71008.00
2018-07-01T09:40:50.342Z,71040.00
2018-07-01T09:41:50.546Z,70400.00
2018-07-01T09:42:50.744Z,70368.00
2018-07-01T09:43:50.970Z,70464.00
2018-07-01T09:44:51.158Z,71296.00
2018-07-01T09:45:51.383Z,71456.00
2018-07-01T09:46:51.607Z,70784.00
2018-07-01T09:47:51.799Z,70144.00
2018-07-01T09:48:52.024Z,69440.00
2018-07-01T09:49:52.241Z,68832.00
2018-07-01T09:50:52.435Z,69632.00
2018-07-01T09:51:52.648Z,69504.00
2018-07-01T09:52:52.870Z,69440.00
2018-07-01T09:53:53.092Z,69280.00
2018-07-01T09:54:53.307Z,68032.00
2018-07-01T09:55:53.520Z,69184.00
2018-07-01T09:56:53.736Z,68672.00
2018-07-01T09:57:53.956Z,68512.00
2018-07-01T09:58:54.168Z,69056.00
2018-07-01T09:59:54.403Z,68480.00
2018-07-01T10:00:54.638Z,67136.00
2018-07-01T10:01:54.845Z,66688.00
2018-07-01T10:02:55.055Z,66368.00
2018-07-01T10:03:55.276Z,65568.00
2018-07-01T10:04:55.481Z,64768.00
2018-07-01T10:05:55.677Z,63840.00
2018-07-01T10:06:55.895Z,63040.00
2018-07-01T10:07:56.098Z,61536.00
2018-07-01T10:08:56.313Z,60640.00
2018-07-01T10:09:56.504Z,60128.00
2018-07-01T10:10:56.703Z,59744.00
2018-07-01T10:11:56.957Z,59968.00
2018-07-01T10:12:57.141Z,60512.00
2018-07-01T10:13:57.343Z,60000.00
2018-07-01T10:14:57.541Z,58944.00
2018-07-01T10:15:57.763Z,58496.00
2018-07-01T10:16:57.967Z,57376.00
2018-07-01T10:17:58.172Z,57152.00
2018-07-01T10:18:58.383Z,57088.00
2018-07-01T10:19:58.590Z,58176.00
2018-07-01T10:20:58.785Z,58336.00
2018-07-01T10:21:59.001Z,59168.00
2018-07-01T10:22:59.219Z,58272.00
2018-07-01T10:23:59.421Z,55680.00
2018-07-01T10:24:59.646Z,42464.00
2018-07-01T10:25:59.866Z,26144.00
2018-07-01T10:27:00.060Z,13160.00
2018-07-01T10:28:00.252Z,11324.00
2018-07-01T10:29:00.450Z,11312.00
2018-07-01T10:30:00.704Z,11304.00
2018-07-01T10:31:00.804Z,11280.00
2018-07-01T10:32:00.999Z,11268.00
2018-07-01T10:33:01.222Z,11224.00
2018-07-01T10:34:01.417Z,11208.00
2018-07-01T10:35:01.629Z,11208.00
2018-07-01T10:36:01.827Z,11204.00
2018-07-01T10:37:02.014Z,11148.00
2018-07-01T10:38:02.223Z,11120.00
2018-07-01T10:39:02.418Z,11092.00
2018-07-01T10:40:02.607Z,11076.00
2018-07-01T10:41:02.817Z,11016.00
2018-07-01T10:42:03.036Z,10976.00
2018-07-01T10:43:03.232Z,10912.00
2018-07-01T10:44:03.426Z,10840.00
2018-07-01T10:45:03.625Z,10740.00
2018-07-01T10:46:03.825Z,10636.00
2018-07-01T10:47:04.019Z,10528.00
2018-07-01T10:48:04.234Z,10424.00
2018-07-01T10:49:04.449Z,10320.00
2018-07-01T10:50:04.665Z,10216.00
2018-07-01T10:51:04.876Z,10092.00
2018-07-01T10:52:05.067Z,9980.00
2018-07-01T10:53:05.275Z,9848.00
2018-07-01T10:54:05.465Z,9744.00
2018-07-01T10:55:05.686Z,9632.00
2018-07-01T10:56:05.904Z,9532.00
2018-07-01T10:57:06.104Z,9416.00
2018-07-01T10:58:06.316Z,9320.00
2018-07-01T10:59:06.520Z,9220.00
2018-07-01T11:00:06.723Z,9112.00
2018-07-01T11:01:06.936Z,9020.00
2018-07-01T11:02:07.151Z,8928.00
2018-07-01T11:03:07.365Z,8856.00
2018-07-01T11:04:07.586Z,8760.00
2018-07-01T11:05:07.804Z,8692.00
2018-07-01T11:06:08.127Z,8612.00
2018-07-01T11:07:08.218Z,8548.00
2018-07-01T11:08:08.427Z,8488.00
2018-07-01T11:09:08.617Z,8460.00
2018-07-01T11:10:08.810Z,8416.00
2018-07-01T11:11:09.002Z,8368.00
2018-07-01T11:12:09.197Z,8320.00
2018-07-01T11:13:09.411Z,8280.00
2018-07-01T11:14:09.607Z,8244.00
2018-07-01T11:15:09.803Z,8208.00
2018-07-01T11:16:10.007Z,8176.00
2018-07-01T11:17:10.207Z,8132.00
2018-07-01T11:18:10.418Z,8100.00
2018-07-01T11:19:10.627Z,8080.00
2018-07-01T11:20:10.853Z,8032.00
2018-07-01T11:21:11.046Z,8008.00
2018-07-01T11:22:11.241Z,7996.00
2018-07-01T11:23:11.454Z,7972.00
2018-07-01T11:24:11.657Z,7948.00
2018-07-01T11:25:11.864Z,7920.00
2018-07-01T11:26:12.068Z,7916.00
2018-07-01T11:27:12.409Z,7892.00
2018-07-01T11:28:12.501Z,7872.00
2018-07-01T11:29:12.684Z,7860.00
2018-07-01T11:30:12.895Z,7840.00
2018-07-01T11:31:13.112Z,7828.00
2018-07-01T11:32:13.313Z,7792.00
2018-07-01T11:33:13.544Z,7776.00
2018-07-01T11:34:13.746Z,7764.00
2018-07-01T11:35:13.944Z,7740.00
2018-07-01T11:36:14.128Z,7728.00
2018-07-01T11:37:14.322Z,7712.00
2018-07-01T11:38:14.573Z,7704.00
2018-07-01T11:39:14.747Z,7700.00
2018-07-01T11:40:14.954Z,7704.00
2018-07-01T11:41:15.186Z,7704.00
2018-07-01T11:42:15.383Z,7672.00
2018-07-01T11:43:15.595Z,7636.00
2018-07-01T11:44:15.787Z,7656.00
2018-07-01T11:45:15.980Z,7648.00
2018-07-01T11:46:16.193Z,7636.00
2018-07-01T11:47:16.407Z,7624.00
2018-07-01T11:48:16.605Z,7612.00
2018-07-01T11:49:16.796Z,7596.00
2018-07-01T11:50:16.997Z,7584.00
2018-07-01T11:51:17.197Z,7568.00
2018-07-01T11:52:17.416Z,7544.00
2018-07-01T11:53:17.599Z,7532.00
2018-07-01T11:54:17.805Z,7520.00
2018-07-01T11:55:18.020Z,7512.00
2018-07-01T11:56:18.245Z,7488.00
2018-07-01T11:57:18.459Z,7452.00
2018-07-01T11:58:18.677Z,7464.00
2018-07-01T11:59:18.895Z,7448.00
2018-07-01T12:00:19.129Z,7444.00
2018-07-01T12:01:19.330Z,7424.00
2018-07-01T12:02:19.531Z,7408.00
2018-07-01T12:03:19.726Z,7392.00
2018-07-01T12:04:19.946Z,7400.00
2018-07-01T12:05:20.190Z,7372.00
2018-07-01T12:06:20.365Z,7360.00
2018-07-01T12:07:20.567Z,7356.00
2018-07-01T12:08:20.774Z,7332.00
2018-07-01T12:09:20.955Z,7328.00
2018-07-01T12:10:21.145Z,7312.00
2018-07-01T12:11:21.361Z,7304.00
2018-07-01T12:12:21.569Z,7296.00
2018-07-01T12:13:21.770Z,7268.00
2018-07-01T12:14:21.985Z,7240.00
2018-07-01T12:15:22.179Z,7244.00
2018-07-01T12:16:22.372Z,7236.00
2018-07-01T12:17:22.646Z,7216.00
2018-07-01T12:18:22.740Z,7212.00
2018-07-01T12:19:22.927Z,7188.00
2018-07-01T12:20:23.129Z,7172.00
2018-07-01T12:21:23.346Z,7156.00
2018-07-01T12:22:23.549Z,7132.00
2018-07-01T12:23:23.787Z,7116.00
2018-07-01T12:24:23.935Z,7112.00
2018-07-01T12:25:24.165Z,7088.00
2018-07-01T12:26:24.384Z,7068.00
2018-07-01T12:27:24.598Z,7048.00
2018-07-01T12:28:24.802Z,7040.00
2018-07-01T12:29:25.008Z,7028.00
2018-07-01T12:30:25.215Z,7000.00
2018-07-01T12:31:25.411Z,6992.00
2018-07-01T12:32:25.608Z,6984.00
2018-07-01T12:33:25.812Z,6960.00
2018-07-01T12:34:26.016Z,6940.00
2018-07-01T12:35:26.236Z,6932.00
2018-07-01T12:36:26.444Z,6904.00
2018-07-01T12:37:26.656Z,6904.00
2018-07-01T12:38:26.861Z,6888.00